메인 페이지
METAR-TAF:

METAR-TAF

공항 :

마르델플라타, 아르헨티나

위도: 37-56S, 경도: 057-35W, 고도: 18m

현재 날씨관측

예보는 15분 전, 20:00시(UTC)에 발표되었습니다.
북동12kt
온도 16°C
습도 94%
기압 1004 hPa
시정: 5000m
고도 1300ft 상공 흐림
박무

METAR: SAZM 182000Z 05012KT 5000 BR OVC013 16/15 Q1004

시각: 17:15 (20:15 UTC)

예보

예보는 3 시간 15분 전, 17:00시(UTC)에 발표되었습니다.
예보 대상 시간: 18일 18시부터 19일 18시까지 (UTC)
동북동10kt
시정: 4000m
고도 300ft 상공 구름 많음
고도 700ft 상공 흐림
박무
일시적
18일 18시부터 18일 20시까지 (UTC)
북동15kt, 순간 최대 풍속 25kt
시정 10km 이상
고도 1200ft 상공 구름 많음
고도 20000ft 상공 구름 많음
확률 40%
18일 21시부터 19일 00시까지 (UTC)
15kt, 순간 최대 풍속 25kt
시정: 6000m
고도 1500ft 상공 구름 보통
고도 2500ft 상공 구름 조금, 적란운.
고도 5000ft 상공 흐림
뇌우, 비
전환 중
19일 01시부터 19일 03시까지 (UTC)
15kt
시정: 5000m
고도 2500ft 상공 구름 보통
고도 4500ft 상공 흐림
전환 중
19일 09시부터 19일 12시까지 (UTC)
15kt, 순간 최대 풍속 25kt
시정 10km 이상
1500m 미만 상공 구름 및 적란운 없음
일시적
19일 15시부터 19일 18시까지 (UTC)
시정: 7000m
고도 3000ft 상공 구름 조금, 타워링 적운.
고도 6000ft 상공 구름 보통
소나기

TAF: SAZM 181700Z 1818/1918 07010KT 4000 BR BKN003 OVC007 TX18/1818Z TN07/1910Z TEMPO 1818/1820 05015G25KT 9999 BKN012 BKN200 PROB40 1821/1900 36015G25KT 6000 TSRA SCT015 FEW025CB OVC050 BECMG 1901/1903 27015KT 5000 RA SCT025 OVC045 BECMG 1909/1912 27015G25KT CAVOK TEMPO 1915/1918 7000 SHRA FEW030TCU SCT060

4,000개 이상의 공항 관측 자료 및 예보 (METAR 및 TAF 보고).

지도상에서 검색 가능한 기상관측소가 노란 점과 빨간 점으로 표시되어 있습니다.

기상관측소 명을 보려면 표시 위로 마우스를 이동하세요.

날씨 관측과 예보를 보려면 클릭하세요.

지도 변경 : 확대하려면 엑스 표시가 있는 녹색 버튼, 축소하려면 빼기 표시가 있는 녹색 버튼, 다음 페이지의 지도를 보려면 녹색 화살표를 클릭하세요.


METAR-TAF: